sensor_id;sensor_type;location;lat;lon;timestamp;P1;durP1;ratioP1;P2;durP2;ratioP2
21758;SDS011;11041;50.854;20.580;2022-10-22T00:01:46;44.28;;;27.77;;
21758;SDS011;11041;50.854;20.580;2022-10-22T00:04:13;40.03;;;23.98;;
21758;SDS011;11041;50.854;20.580;2022-10-22T00:06:40;40.28;;;24.65;;
21758;SDS011;11041;50.854;20.580;2022-10-22T00:09:10;36.75;;;25.08;;
21758;SDS011;11041;50.854;20.580;2022-10-22T00:11:39;35.90;;;23.88;;
21758;SDS011;11041;50.854;20.580;2022-10-22T00:14:07;39.83;;;25.52;;
21758;SDS011;11041;50.854;20.580;2022-10-22T00:16:34;39.30;;;24.23;;
21758;SDS011;11041;50.854;20.580;2022-10-22T00:19:00;43.40;;;25.42;;
21758;SDS011;11041;50.854;20.580;2022-10-22T00:21:27;38.85;;;24.98;;
21758;SDS011;11041;50.854;20.580;2022-10-22T00:23:54;40.30;;;25.38;;
21758;SDS011;11041;50.854;20.580;2022-10-22T00:26:21;41.88;;;25.42;;
21758;SDS011;11041;50.854;20.580;2022-10-22T00:28:48;42.38;;;25.83;;
21758;SDS011;11041;50.854;20.580;2022-10-22T00:31:15;38.88;;;26.77;;
21758;SDS011;11041;50.854;20.580;2022-10-22T00:33:44;41.42;;;24.60;;
21758;SDS011;11041;50.854;20.580;2022-10-22T00:36:13;38.85;;;25.95;;
21758;SDS011;11041;50.854;20.580;2022-10-22T00:38:41;40.80;;;26.17;;
21758;SDS011;11041;50.854;20.580;2022-10-22T00:41:08;38.25;;;24.83;;
21758;SDS011;11041;50.854;20.580;2022-10-22T00:43:51;39.03;;;25.98;;
21758;SDS011;11041;50.854;20.580;2022-10-22T00:46:25;40.03;;;24.85;;
21758;SDS011;11041;50.854;20.580;2022-10-22T00:48:53;38.97;;;23.33;;
21758;SDS011;11041;50.854;20.580;2022-10-22T00:51:26;37.30;;;23.67;;
21758;SDS011;11041;50.854;20.580;2022-10-22T00:54:02;37.70;;;24.40;;
21758;SDS011;11041;50.854;20.580;2022-10-22T00:56:33;32.58;;;23.05;;
21758;SDS011;11041;50.854;20.580;2022-10-22T00:59:00;33.88;;;22.45;;
21758;SDS011;11041;50.854;20.580;2022-10-22T01:01:29;38.28;;;23.20;;
21758;SDS011;11041;50.854;20.580;2022-10-22T01:03:56;37.30;;;23.33;;
21758;SDS011;11041;50.854;20.580;2022-10-22T01:06:26;39.78;;;24.63;;
21758;SDS011;11041;50.854;20.580;2022-10-22T01:27:10;35.30;;;23.20;;
21758;SDS011;11041;50.854;20.580;2022-10-22T01:30:11;34.58;;;22.85;;
21758;SDS011;11041;50.854;20.580;2022-10-22T01:32:42;34.85;;;23.05;;
21758;SDS011;11041;50.854;20.580;2022-10-22T01:35:22;36.88;;;23.65;;
21758;SDS011;11041;50.854;20.580;2022-10-22T01:37:57;32.53;;;22.40;;
21758;SDS011;11041;50.854;20.580;2022-10-22T01:40:31;36.38;;;23.27;;
21758;SDS011;11041;50.854;20.580;2022-10-22T01:43:02;32.72;;;22.40;;
21758;SDS011;11041;50.854;20.580;2022-10-22T01:45:33;34.33;;;23.20;;
21758;SDS011;11041;50.854;20.580;2022-10-22T02:02:43;29.15;;;19.40;;
21758;SDS011;11041;50.854;20.580;2022-10-22T02:08:10;31.17;;;21.38;;
21758;SDS011;11041;50.854;20.580;2022-10-22T02:10:43;31.00;;;21.08;;
21758;SDS011;11041;50.854;20.580;2022-10-22T02:13:20;32.38;;;21.38;;
21758;SDS011;11041;50.854;20.580;2022-10-22T02:15:53;40.85;;;22.35;;
21758;SDS011;11041;50.854;20.580;2022-10-22T02:18:25;33.47;;;21.55;;
21758;SDS011;11041;50.854;20.580;2022-10-22T02:20:57;37.03;;;23.33;;
21758;SDS011;11041;50.854;20.580;2022-10-22T02:23:26;32.22;;;20.80;;
21758;SDS011;11041;50.854;20.580;2022-10-22T02:25:59;36.67;;;20.92;;
21758;SDS011;11041;50.854;20.580;2022-10-22T02:28:49;35.38;;;21.92;;
21758;SDS011;11041;50.854;20.580;2022-10-22T02:31:43;33.95;;;22.05;;
21758;SDS011;11041;50.854;20.580;2022-10-22T02:34:15;37.53;;;23.25;;
21758;SDS011;11041;50.854;20.580;2022-10-22T02:36:48;38.58;;;22.80;;
21758;SDS011;11041;50.854;20.580;2022-10-22T02:39:18;35.75;;;23.40;;
21758;SDS011;11041;50.854;20.580;2022-10-22T02:41:46;35.83;;;23.45;;
21758;SDS011;11041;50.854;20.580;2022-10-22T02:44:14;33.75;;;22.52;;
21758;SDS011;11041;50.854;20.580;2022-10-22T02:46:44;35.90;;;23.10;;
21758;SDS011;11041;50.854;20.580;2022-10-22T02:49:11;34.00;;;23.38;;
21758;SDS011;11041;50.854;20.580;2022-10-22T02:51:37;38.28;;;23.23;;
21758;SDS011;11041;50.854;20.580;2022-10-22T02:54:04;35.75;;;23.33;;
21758;SDS011;11041;50.854;20.580;2022-10-22T02:56:31;34.95;;;24.13;;
21758;SDS011;11041;50.854;20.580;2022-10-22T02:58:58;35.85;;;22.73;;
21758;SDS011;11041;50.854;20.580;2022-10-22T03:01:24;38.85;;;24.00;;
21758;SDS011;11041;50.854;20.580;2022-10-22T03:03:51;36.17;;;23.70;;
21758;SDS011;11041;50.854;20.580;2022-10-22T03:06:18;37.53;;;24.20;;
21758;SDS011;11041;50.854;20.580;2022-10-22T03:08:44;36.40;;;22.38;;
21758;SDS011;11041;50.854;20.580;2022-10-22T03:11:11;34.80;;;23.13;;
21758;SDS011;11041;50.854;20.580;2022-10-22T03:13:37;42.85;;;25.30;;
21758;SDS011;11041;50.854;20.580;2022-10-22T03:16:04;35.22;;;23.67;;
21758;SDS011;11041;50.854;20.580;2022-10-22T03:18:31;34.05;;;22.77;;
21758;SDS011;11041;50.854;20.580;2022-10-22T03:21:20;31.70;;;21.52;;
21758;SDS011;11041;50.854;20.580;2022-10-22T03:24:12;31.10;;;20.90;;
21758;SDS011;11041;50.854;20.580;2022-10-22T03:26:48;42.25;;;23.88;;
21758;SDS011;11041;50.854;20.580;2022-10-22T03:29:17;36.35;;;24.95;;
21758;SDS011;11041;50.854;20.580;2022-10-22T03:31:48;40.13;;;25.27;;
21758;SDS011;11041;50.854;20.580;2022-10-22T03:34:14;41.13;;;27.10;;
21758;SDS011;11041;50.854;20.580;2022-10-22T03:36:41;43.20;;;28.80;;
21758;SDS011;11041;50.854;20.580;2022-10-22T03:39:08;46.80;;;27.55;;
21758;SDS011;11041;50.854;20.580;2022-10-22T03:41:39;41.05;;;27.38;;
21758;SDS011;11041;50.854;20.580;2022-10-22T03:44:07;47.65;;;31.40;;
21758;SDS011;11041;50.854;20.580;2022-10-22T03:46:33;50.05;;;32.47;;
21758;SDS011;11041;50.854;20.580;2022-10-22T03:49:00;47.17;;;32.05;;
21758;SDS011;11041;50.854;20.580;2022-10-22T03:51:27;48.95;;;31.00;;
21758;SDS011;11041;50.854;20.580;2022-10-22T03:53:54;50.90;;;33.78;;
21758;SDS011;11041;50.854;20.580;2022-10-22T03:56:21;52.90;;;31.88;;
21758;SDS011;11041;50.854;20.580;2022-10-22T03:58:48;49.35;;;29.42;;
21758;SDS011;11041;50.854;20.580;2022-10-22T04:01:14;45.72;;;30.10;;
21758;SDS011;11041;50.854;20.580;2022-10-22T04:03:41;41.28;;;28.00;;
21758;SDS011;11041;50.854;20.580;2022-10-22T04:06:08;45.42;;;28.40;;
21758;SDS011;11041;50.854;20.580;2022-10-22T04:08:39;47.97;;;28.95;;
21758;SDS011;11041;50.854;20.580;2022-10-22T04:11:08;43.03;;;29.08;;
21758;SDS011;11041;50.854;20.580;2022-10-22T04:13:36;42.78;;;28.73;;
21758;SDS011;11041;50.854;20.580;2022-10-22T04:16:06;46.38;;;30.27;;
21758;SDS011;11041;50.854;20.580;2022-10-22T04:18:38;48.60;;;31.00;;
21758;SDS011;11041;50.854;20.580;2022-10-22T04:21:07;51.30;;;33.00;;
21758;SDS011;11041;50.854;20.580;2022-10-22T04:23:36;108.25;;;73.25;;
21758;SDS011;11041;50.854;20.580;2022-10-22T04:26:04;77.20;;;50.17;;
21758;SDS011;11041;50.854;20.580;2022-10-22T04:28:33;57.50;;;36.72;;
21758;SDS011;11041;50.854;20.580;2022-10-22T04:31:00;50.42;;;32.03;;
21758;SDS011;11041;50.854;20.580;2022-10-22T04:33:34;71.30;;;50.22;;
21758;SDS011;11041;50.854;20.580;2022-10-22T04:36:04;56.70;;;38.58;;
21758;SDS011;11041;50.854;20.580;2022-10-22T04:38:40;53.72;;;38.78;;
21758;SDS011;11041;50.854;20.580;2022-10-22T04:41:09;51.47;;;35.65;;
21758;SDS011;11041;50.854;20.580;2022-10-22T04:43:40;57.17;;;39.00;;
21758;SDS011;11041;50.854;20.580;2022-10-22T04:46:07;67.20;;;46.92;;
21758;SDS011;11041;50.854;20.580;2022-10-22T04:48:36;90.05;;;65.32;;
21758;SDS011;11041;50.854;20.580;2022-10-22T04:51:06;64.07;;;44.45;;
21758;SDS011;11041;50.854;20.580;2022-10-22T04:53:35;65.47;;;45.13;;
21758;SDS011;11041;50.854;20.580;2022-10-22T04:56:13;61.53;;;42.80;;
21758;SDS011;11041;50.854;20.580;2022-10-22T04:58:46;66.40;;;45.40;;
21758;SDS011;11041;50.854;20.580;2022-10-22T05:01:16;64.30;;;45.35;;
21758;SDS011;11041;50.854;20.580;2022-10-22T05:03:50;56.50;;;42.03;;
21758;SDS011;11041;50.854;20.580;2022-10-22T05:06:19;62.80;;;46.90;;
21758;SDS011;11041;50.854;20.580;2022-10-22T05:08:50;62.20;;;41.78;;
21758;SDS011;11041;50.854;20.580;2022-10-22T05:11:21;62.47;;;44.50;;
21758;SDS011;11041;50.854;20.580;2022-10-22T05:14:05;61.00;;;40.78;;
21758;SDS011;11041;50.854;20.580;2022-10-22T05:17:47;59.58;;;38.13;;
21758;SDS011;11041;50.854;20.580;2022-10-22T05:20:17;56.67;;;36.95;;
21758;SDS011;11041;50.854;20.580;2022-10-22T05:23:40;57.70;;;35.05;;
21758;SDS011;11041;50.854;20.580;2022-10-22T05:26:09;60.33;;;40.00;;
21758;SDS011;11041;50.854;20.580;2022-10-22T05:28:38;66.75;;;41.63;;
21758;SDS011;11041;50.854;20.580;2022-10-22T05:31:05;60.80;;;40.67;;
21758;SDS011;11041;50.854;20.580;2022-10-22T05:33:35;68.22;;;41.35;;
21758;SDS011;11041;50.854;20.580;2022-10-22T05:36:02;66.18;;;42.58;;
21758;SDS011;11041;50.854;20.580;2022-10-22T05:38:31;61.17;;;40.53;;
21758;SDS011;11041;50.854;20.580;2022-10-22T05:41:00;57.92;;;37.03;;
21758;SDS011;11041;50.854;20.580;2022-10-22T05:43:39;65.93;;;38.42;;
21758;SDS011;11041;50.854;20.580;2022-10-22T05:46:07;56.45;;;37.90;;
21758;SDS011;11041;50.854;20.580;2022-10-22T05:48:37;55.67;;;35.67;;
21758;SDS011;11041;50.854;20.580;2022-10-22T05:51:08;70.25;;;43.33;;
21758;SDS011;11041;50.854;20.580;2022-10-22T05:53:39;58.25;;;37.63;;
21758;SDS011;11041;50.854;20.580;2022-10-22T05:56:10;65.97;;;39.53;;
21758;SDS011;11041;50.854;20.580;2022-10-22T05:58:39;75.80;;;46.72;;
21758;SDS011;11041;50.854;20.580;2022-10-22T06:01:08;72.13;;;45.70;;
21758;SDS011;11041;50.854;20.580;2022-10-22T06:06:51;67.25;;;42.72;;
21758;SDS011;11041;50.854;20.580;2022-10-22T06:09:35;59.08;;;40.20;;
21758;SDS011;11041;50.854;20.580;2022-10-22T06:12:02;64.90;;;42.55;;
21758;SDS011;11041;50.854;20.580;2022-10-22T06:14:28;64.78;;;41.70;;
21758;SDS011;11041;50.854;20.580;2022-10-22T06:16:59;64.63;;;41.03;;
21758;SDS011;11041;50.854;20.580;2022-10-22T06:19:41;68.57;;;43.33;;
21758;SDS011;11041;50.854;20.580;2022-10-22T06:22:07;65.70;;;44.42;;
21758;SDS011;11041;50.854;20.580;2022-10-22T06:24:34;68.65;;;44.13;;
21758;SDS011;11041;50.854;20.580;2022-10-22T06:27:00;60.75;;;42.00;;
21758;SDS011;11041;50.854;20.580;2022-10-22T06:29:30;62.95;;;41.92;;
21758;SDS011;11041;50.854;20.580;2022-10-22T06:31:56;63.55;;;44.50;;
21758;SDS011;11041;50.854;20.580;2022-10-22T06:34:33;64.35;;;43.40;;
21758;SDS011;11041;50.854;20.580;2022-10-22T06:37:09;42.13;;;30.05;;
21758;SDS011;11041;50.854;20.580;2022-10-22T06:39:36;53.80;;;36.42;;
21758;SDS011;11041;50.854;20.580;2022-10-22T06:42:03;47.80;;;30.52;;
21758;SDS011;11041;50.854;20.580;2022-10-22T06:44:29;47.40;;;34.78;;
21758;SDS011;11041;50.854;20.580;2022-10-22T06:46:56;44.13;;;30.42;;
21758;SDS011;11041;50.854;20.580;2022-10-22T06:49:22;50.72;;;32.33;;
21758;SDS011;11041;50.854;20.580;2022-10-22T06:51:53;72.00;;;40.70;;
21758;SDS011;11041;50.854;20.580;2022-10-22T06:54:20;78.93;;;43.13;;
21758;SDS011;11041;50.854;20.580;2022-10-22T06:56:48;79.60;;;42.22;;
21758;SDS011;11041;50.854;20.580;2022-10-22T06:59:14;63.35;;;37.15;;
21758;SDS011;11041;50.854;20.580;2022-10-22T07:01:44;65.15;;;42.33;;
21758;SDS011;11041;50.854;20.580;2022-10-22T07:04:19;49.33;;;33.60;;
21758;SDS011;11041;50.854;20.580;2022-10-22T07:06:49;48.42;;;33.40;;
21758;SDS011;11041;50.854;20.580;2022-10-22T07:09:25;57.25;;;32.80;;
21758;SDS011;11041;50.854;20.580;2022-10-22T07:11:54;40.90;;;27.10;;
21758;SDS011;11041;50.854;20.580;2022-10-22T07:14:29;46.78;;;28.88;;
21758;SDS011;11041;50.854;20.580;2022-10-22T07:19:41;31.85;;;21.05;;
21758;SDS011;11041;50.854;20.580;2022-10-22T07:22:32;40.65;;;25.58;;
21758;SDS011;11041;50.854;20.580;2022-10-22T07:28:33;30.95;;;21.15;;
21758;SDS011;11041;50.854;20.580;2022-10-22T07:34:09;44.40;;;26.67;;
21758;SDS011;11041;50.854;20.580;2022-10-22T07:36:38;32.95;;;22.48;;
21758;SDS011;11041;50.854;20.580;2022-10-22T07:39:04;30.15;;;19.77;;
21758;SDS011;11041;50.854;20.580;2022-10-22T07:41:31;29.92;;;19.58;;
21758;SDS011;11041;50.854;20.580;2022-10-22T07:43:58;30.13;;;19.40;;
21758;SDS011;11041;50.854;20.580;2022-10-22T07:46:25;25.50;;;17.88;;
21758;SDS011;11041;50.854;20.580;2022-10-22T07:48:52;27.00;;;18.98;;
21758;SDS011;11041;50.854;20.580;2022-10-22T07:51:22;27.77;;;17.73;;
21758;SDS011;11041;50.854;20.580;2022-10-22T07:53:48;28.48;;;18.92;;
21758;SDS011;11041;50.854;20.580;2022-10-22T07:56:15;29.67;;;19.27;;
21758;SDS011;11041;50.854;20.580;2022-10-22T07:58:42;26.33;;;18.60;;
21758;SDS011;11041;50.854;20.580;2022-10-22T08:01:09;23.67;;;17.60;;
21758;SDS011;11041;50.854;20.580;2022-10-22T08:03:35;28.15;;;17.42;;
21758;SDS011;11041;50.854;20.580;2022-10-22T08:06:02;27.83;;;17.85;;
21758;SDS011;11041;50.854;20.580;2022-10-22T08:08:32;28.70;;;17.30;;
21758;SDS011;11041;50.854;20.580;2022-10-22T08:11:15;25.67;;;16.55;;
21758;SDS011;11041;50.854;20.580;2022-10-22T08:13:42;21.23;;;15.73;;
21758;SDS011;11041;50.854;20.580;2022-10-22T08:16:23;20.42;;;16.33;;
21758;SDS011;11041;50.854;20.580;2022-10-22T08:20:17;22.20;;;15.98;;
21758;SDS011;11041;50.854;20.580;2022-10-22T08:30:59;19.10;;;13.32;;
21758;SDS011;11041;50.854;20.580;2022-10-22T08:33:29;20.10;;;12.38;;
21758;SDS011;11041;50.854;20.580;2022-10-22T08:36:43;18.50;;;13.30;;
21758;SDS011;11041;50.854;20.580;2022-10-22T08:39:15;16.60;;;13.02;;
21758;SDS011;11041;50.854;20.580;2022-10-22T08:41:49;20.90;;;13.30;;
21758;SDS011;11041;50.854;20.580;2022-10-22T08:52:07;23.05;;;16.08;;
21758;SDS011;11041;50.854;20.580;2022-10-22T08:55:12;21.90;;;16.70;;
21758;SDS011;11041;50.854;20.580;2022-10-22T08:58:20;28.92;;;17.63;;
21758;SDS011;11041;50.854;20.580;2022-10-22T09:01:35;23.50;;;16.17;;
21758;SDS011;11041;50.854;20.580;2022-10-22T09:04:38;27.30;;;16.58;;
21758;SDS011;11041;50.854;20.580;2022-10-22T09:07:46;21.05;;;15.00;;
21758;SDS011;11041;50.854;20.580;2022-10-22T12:09:04;50.97;;;32.47;;
21758;SDS011;11041;50.854;20.580;2022-10-22T12:11:39;28.63;;;19.38;;
21758;SDS011;11041;50.854;20.580;2022-10-22T12:14:24;30.67;;;20.83;;
21758;SDS011;11041;50.854;20.580;2022-10-22T12:17:04;23.00;;;18.38;;
21758;SDS011;11041;50.854;20.580;2022-10-22T12:19:42;23.05;;;16.55;;
21758;SDS011;11041;50.854;20.580;2022-10-22T12:22:17;23.90;;;17.33;;
21758;SDS011;11041;50.854;20.580;2022-10-22T12:24:54;24.65;;;18.98;;
21758;SDS011;11041;50.854;20.580;2022-10-22T12:27:32;29.25;;;18.52;;
21758;SDS011;11041;50.854;20.580;2022-10-22T12:30:12;25.20;;;17.38;;
21758;SDS011;11041;50.854;20.580;2022-10-22T12:32:50;25.48;;;17.80;;
21758;SDS011;11041;50.854;20.580;2022-10-22T12:35:49;30.13;;;19.38;;
21758;SDS011;11041;50.854;20.580;2022-10-22T12:38:18;26.23;;;18.45;;
21758;SDS011;11041;50.854;20.580;2022-10-22T12:40:49;27.60;;;19.75;;
21758;SDS011;11041;50.854;20.580;2022-10-22T12:43:24;37.55;;;23.60;;
21758;SDS011;11041;50.854;20.580;2022-10-22T12:45:54;30.23;;;22.08;;
21758;SDS011;11041;50.854;20.580;2022-10-22T12:48:24;26.45;;;20.50;;
21758;SDS011;11041;50.854;20.580;2022-10-22T12:51:01;27.35;;;18.70;;
21758;SDS011;11041;50.854;20.580;2022-10-22T12:56:10;25.38;;;18.33;;
21758;SDS011;11041;50.854;20.580;2022-10-22T12:58:52;28.17;;;19.23;;
21758;SDS011;11041;50.854;20.580;2022-10-22T13:01:27;30.00;;;18.95;;
21758;SDS011;11041;50.854;20.580;2022-10-22T13:04:05;29.17;;;19.83;;
21758;SDS011;11041;50.854;20.580;2022-10-22T13:06:49;25.85;;;19.10;;
21758;SDS011;11041;50.854;20.580;2022-10-22T13:09:36;32.63;;;21.27;;
21758;SDS011;11041;50.854;20.580;2022-10-22T13:12:09;26.88;;;20.52;;
21758;SDS011;11041;50.854;20.580;2022-10-22T13:14:44;34.65;;;21.58;;
21758;SDS011;11041;50.854;20.580;2022-10-22T13:17:15;31.40;;;21.73;;
21758;SDS011;11041;50.854;20.580;2022-10-22T13:20:14;29.02;;;21.55;;
21758;SDS011;11041;50.854;20.580;2022-10-22T13:23:05;32.97;;;21.77;;
21758;SDS011;11041;50.854;20.580;2022-10-22T13:28:41;31.17;;;22.42;;
21758;SDS011;11041;50.854;20.580;2022-10-22T13:31:23;36.25;;;23.90;;
21758;SDS011;11041;50.854;20.580;2022-10-22T13:34:02;34.55;;;24.42;;
21758;SDS011;11041;50.854;20.580;2022-10-22T13:36:34;36.63;;;24.95;;
21758;SDS011;11041;50.854;20.580;2022-10-22T13:39:01;34.60;;;24.42;;
21758;SDS011;11041;50.854;20.580;2022-10-22T13:41:38;34.67;;;24.98;;
21758;SDS011;11041;50.854;20.580;2022-10-22T13:44:17;35.90;;;24.92;;
21758;SDS011;11041;50.854;20.580;2022-10-22T13:46:50;34.85;;;24.60;;
21758;SDS011;11041;50.854;20.580;2022-10-22T13:49:18;34.67;;;25.48;;
21758;SDS011;11041;50.854;20.580;2022-10-22T14:04:17;46.42;;;29.13;;
21758;SDS011;11041;50.854;20.580;2022-10-22T14:08:07;39.47;;;26.48;;
21758;SDS011;11041;50.854;20.580;2022-10-22T14:18:46;42.90;;;28.25;;
21758;SDS011;11041;50.854;20.580;2022-10-22T14:26:39;43.83;;;28.70;;
21758;SDS011;11041;50.854;20.580;2022-10-22T14:29:14;39.70;;;28.02;;
21758;SDS011;11041;50.854;20.580;2022-10-22T14:37:02;43.25;;;27.63;;
21758;SDS011;11041;50.854;20.580;2022-10-22T14:39:29;44.70;;;30.17;;
21758;SDS011;11041;50.854;20.580;2022-10-22T14:42:10;46.97;;;30.52;;
21758;SDS011;11041;50.854;20.580;2022-10-22T14:44:39;43.85;;;28.67;;
21758;SDS011;11041;50.854;20.580;2022-10-22T14:47:08;39.67;;;28.63;;
21758;SDS011;11041;50.854;20.580;2022-10-22T14:49:35;42.95;;;29.02;;
21758;SDS011;11041;50.854;20.580;2022-10-22T14:52:02;65.53;;;47.05;;
21758;SDS011;11041;50.854;20.580;2022-10-22T14:54:37;47.45;;;32.72;;
21758;SDS011;11041;50.854;20.580;2022-10-22T14:57:14;40.28;;;28.55;;
21758;SDS011;11041;50.854;20.580;2022-10-22T14:59:41;44.60;;;28.38;;
21758;SDS011;11041;50.854;20.580;2022-10-22T15:02:10;42.20;;;28.90;;
21758;SDS011;11041;50.854;20.580;2022-10-22T15:04:38;41.60;;;28.48;;
21758;SDS011;11041;50.854;20.580;2022-10-22T15:07:05;37.58;;;27.10;;
21758;SDS011;11041;50.854;20.580;2022-10-22T15:09:32;41.80;;;30.83;;
21758;SDS011;11041;50.854;20.580;2022-10-22T15:12:01;41.45;;;28.35;;
21758;SDS011;11041;50.854;20.580;2022-10-22T15:14:28;41.17;;;28.52;;
21758;SDS011;11041;50.854;20.580;2022-10-22T15:16:55;46.63;;;28.98;;
21758;SDS011;11041;50.854;20.580;2022-10-22T15:19:21;43.35;;;29.85;;
21758;SDS011;11041;50.854;20.580;2022-10-22T15:21:48;43.90;;;31.25;;
21758;SDS011;11041;50.854;20.580;2022-10-22T15:24:14;43.92;;;31.73;;
21758;SDS011;11041;50.854;20.580;2022-10-22T15:26:41;44.05;;;29.17;;
21758;SDS011;11041;50.854;20.580;2022-10-22T15:29:27;39.95;;;27.88;;
21758;SDS011;11041;50.854;20.580;2022-10-22T15:36:29;39.42;;;28.10;;
21758;SDS011;11041;50.854;20.580;2022-10-22T15:40:11;50.13;;;30.13;;
21758;SDS011;11041;50.854;20.580;2022-10-22T15:43:04;46.65;;;30.08;;
21758;SDS011;11041;50.854;20.580;2022-10-22T16:05:35;66.00;;;45.28;;
21758;SDS011;11041;50.854;20.580;2022-10-22T16:16:46;232.77;;;149.20;;
21758;SDS011;11041;50.854;20.580;2022-10-22T16:20:02;158.65;;;102.68;;
21758;SDS011;11041;50.854;20.580;2022-10-22T16:22:29;133.63;;;93.90;;
21758;SDS011;11041;50.854;20.580;2022-10-22T16:25:21;77.25;;;48.92;;
21758;SDS011;11041;50.854;20.580;2022-10-22T16:36:58;126.35;;;80.45;;
21758;SDS011;11041;50.854;20.580;2022-10-22T16:39:24;279.02;;;189.93;;
21758;SDS011;11041;50.854;20.580;2022-10-22T16:41:51;233.25;;;170.43;;
21758;SDS011;11041;50.854;20.580;2022-10-22T16:44:18;81.90;;;51.70;;
21758;SDS011;11041;50.854;20.580;2022-10-22T16:46:44;104.90;;;63.75;;
21758;SDS011;11041;50.854;20.580;2022-10-22T16:49:11;275.88;;;189.65;;
21758;SDS011;11041;50.854;20.580;2022-10-22T16:51:37;87.07;;;55.00;;
21758;SDS011;11041;50.854;20.580;2022-10-22T16:54:04;315.90;;;197.73;;
21758;SDS011;11041;50.854;20.580;2022-10-22T16:56:31;113.82;;;71.57;;
21758;SDS011;11041;50.854;20.580;2022-10-22T16:59:00;86.35;;;52.47;;
21758;SDS011;11041;50.854;20.580;2022-10-22T17:01:27;93.88;;;59.75;;
21758;SDS011;11041;50.854;20.580;2022-10-22T17:03:54;79.80;;;50.28;;
21758;SDS011;11041;50.854;20.580;2022-10-22T17:06:24;161.05;;;104.07;;
21758;SDS011;11041;50.854;20.580;2022-10-22T17:08:51;107.63;;;70.45;;
21758;SDS011;11041;50.854;20.580;2022-10-22T17:11:19;99.10;;;60.35;;
21758;SDS011;11041;50.854;20.580;2022-10-22T17:13:49;92.22;;;57.30;;
21758;SDS011;11041;50.854;20.580;2022-10-22T17:16:20;101.38;;;63.97;;
21758;SDS011;11041;50.854;20.580;2022-10-22T17:18:58;90.80;;;56.45;;
21758;SDS011;11041;50.854;20.580;2022-10-22T17:21:30;87.85;;;56.22;;
21758;SDS011;11041;50.854;20.580;2022-10-22T17:24:01;96.28;;;59.17;;
21758;SDS011;11041;50.854;20.580;2022-10-22T17:26:32;92.63;;;56.97;;
21758;SDS011;11041;50.854;20.580;2022-10-22T17:29:04;100.85;;;56.78;;
21758;SDS011;11041;50.854;20.580;2022-10-22T17:31:33;124.70;;;80.53;;
21758;SDS011;11041;50.854;20.580;2022-10-22T17:34:07;121.30;;;75.65;;
21758;SDS011;11041;50.854;20.580;2022-10-22T17:36:42;106.10;;;66.72;;
21758;SDS011;11041;50.854;20.580;2022-10-22T17:39:09;129.70;;;87.10;;
21758;SDS011;11041;50.854;20.580;2022-10-22T17:41:47;103.22;;;65.47;;
21758;SDS011;11041;50.854;20.580;2022-10-22T17:44:15;171.95;;;100.55;;
21758;SDS011;11041;50.854;20.580;2022-10-22T17:46:45;130.45;;;85.32;;
21758;SDS011;11041;50.854;20.580;2022-10-22T17:49:21;107.78;;;63.00;;
21758;SDS011;11041;50.854;20.580;2022-10-22T17:51:51;187.93;;;115.60;;
21758;SDS011;11041;50.854;20.580;2022-10-22T17:55:25;291.20;;;172.60;;
21758;SDS011;11041;50.854;20.580;2022-10-22T17:57:53;127.60;;;74.28;;
21758;SDS011;11041;50.854;20.580;2022-10-22T18:00:20;300.05;;;151.07;;
21758;SDS011;11041;50.854;20.580;2022-10-22T18:02:48;237.45;;;131.45;;
21758;SDS011;11041;50.854;20.580;2022-10-22T18:05:14;133.32;;;78.15;;
21758;SDS011;11041;50.854;20.580;2022-10-22T18:07:41;486.25;;;332.08;;
21758;SDS011;11041;50.854;20.580;2022-10-22T18:10:08;256.02;;;156.25;;
21758;SDS011;11041;50.854;20.580;2022-10-22T18:12:36;468.23;;;304.85;;
21758;SDS011;11041;50.854;20.580;2022-10-22T18:15:02;275.23;;;173.23;;
21758;SDS011;11041;50.854;20.580;2022-10-22T18:17:32;117.88;;;73.03;;
21758;SDS011;11041;50.854;20.580;2022-10-22T18:20:20;111.30;;;64.53;;
21758;SDS011;11041;50.854;20.580;2022-10-22T18:22:48;136.32;;;81.85;;
21758;SDS011;11041;50.854;20.580;2022-10-22T18:25:14;194.35;;;119.70;;
21758;SDS011;11041;50.854;20.580;2022-10-22T18:27:46;766.92;;;472.25;;
21758;SDS011;11041;50.854;20.580;2022-10-22T18:30:13;282.13;;;168.68;;
21758;SDS011;11041;50.854;20.580;2022-10-22T18:32:39;141.73;;;80.38;;
21758;SDS011;11041;50.854;20.580;2022-10-22T18:35:06;118.90;;;68.97;;
21758;SDS011;11041;50.854;20.580;2022-10-22T18:37:33;125.53;;;72.78;;
21758;SDS011;11041;50.854;20.580;2022-10-22T18:40:01;292.75;;;182.38;;
21758;SDS011;11041;50.854;20.580;2022-10-22T18:42:30;302.08;;;185.52;;
21758;SDS011;11041;50.854;20.580;2022-10-22T18:44:56;416.67;;;272.33;;
21758;SDS011;11041;50.854;20.580;2022-10-22T18:47:22;119.55;;;69.57;;
21758;SDS011;11041;50.854;20.580;2022-10-22T18:49:49;421.33;;;263.55;;
21758;SDS011;11041;50.854;20.580;2022-10-22T18:52:16;363.08;;;210.88;;
21758;SDS011;11041;50.854;20.580;2022-10-22T18:54:42;132.82;;;72.93;;
21758;SDS011;11041;50.854;20.580;2022-10-22T18:57:10;326.73;;;147.30;;
21758;SDS011;11041;50.854;20.580;2022-10-22T18:59:36;172.05;;;89.35;;
21758;SDS011;11041;50.854;20.580;2022-10-22T19:02:03;403.55;;;218.52;;
21758;SDS011;11041;50.854;20.580;2022-10-22T19:04:30;191.95;;;94.55;;
21758;SDS011;11041;50.854;20.580;2022-10-22T19:07:02;238.55;;;118.70;;
21758;SDS011;11041;50.854;20.580;2022-10-22T19:09:51;203.13;;;99.32;;
21758;SDS011;11041;50.854;20.580;2022-10-22T19:12:17;428.92;;;202.63;;
21758;SDS011;11041;50.854;20.580;2022-10-22T19:14:46;149.00;;;69.05;;
21758;SDS011;11041;50.854;20.580;2022-10-22T19:17:13;161.00;;;72.63;;
21758;SDS011;11041;50.854;20.580;2022-10-22T19:19:42;160.27;;;64.22;;
21758;SDS011;11041;50.854;20.580;2022-10-22T19:22:10;313.80;;;153.38;;
21758;SDS011;11041;50.854;20.580;2022-10-22T19:24:37;135.10;;;60.08;;
21758;SDS011;11041;50.854;20.580;2022-10-22T19:27:04;121.93;;;55.88;;
21758;SDS011;11041;50.854;20.580;2022-10-22T19:29:30;134.07;;;59.58;;
21758;SDS011;11041;50.854;20.580;2022-10-22T19:31:57;116.43;;;56.47;;
21758;SDS011;11041;50.854;20.580;2022-10-22T19:37:28;272.88;;;128.68;;
21758;SDS011;11041;50.854;20.580;2022-10-22T19:39:55;157.38;;;79.20;;
21758;SDS011;11041;50.854;20.580;2022-10-22T19:42:21;391.85;;;195.70;;
21758;SDS011;11041;50.854;20.580;2022-10-22T19:44:55;109.82;;;55.35;;
21758;SDS011;11041;50.854;20.580;2022-10-22T19:47:22;337.80;;;191.00;;
21758;SDS011;11041;50.854;20.580;2022-10-22T19:49:49;111.70;;;56.78;;
21758;SDS011;11041;50.854;20.580;2022-10-22T19:52:19;194.68;;;116.97;;
21758;SDS011;11041;50.854;20.580;2022-10-22T19:54:45;89.03;;;47.60;;
21758;SDS011;11041;50.854;20.580;2022-10-22T19:57:15;114.28;;;76.53;;
21758;SDS011;11041;50.854;20.580;2022-10-22T19:59:51;90.35;;;47.63;;
21758;SDS011;11041;50.854;20.580;2022-10-22T20:02:29;81.28;;;46.05;;
21758;SDS011;11041;50.854;20.580;2022-10-22T20:07:40;78.40;;;42.42;;